Terminal Aerodrome Forecast
Issued by NWS Jacksonville, FL

Home | Current Version | Previous Version | Text Only | Print | Product List | Glossary On
Versions: 1 2 3 4 5 6 7 8 9 10 11 12 13 14
000
FTUS42 KJAX 211133
TAFJAX
TAF
KJAX 211133Z 2112/2212 07004KT P6SM BKN050 BKN200
     FM211500 11006KT P6SM VCSH SCT025 BKN050
     FM211900 13006KT 5SM -RA SCT007 BKN025 OVC050
     FM220700 VRB02KT 3SM BR SCT001=

USA.gov is the U.S. government's official web portal to all federal, state and local government web resources and services.